Weather reports worldwide

Advertisment
Wasserkuppe, Germany (10544): temperature & dewpoint: 09.08.2020 22:00:00 - 15.08.2020 22:00:00 (CEST)Wasserkuppe, Germany (10544): temperature 5cm & temperature -5cm: 09.08.2020 22:00:00 - 15.08.2020 22:00:00 (CEST)Wasserkuppe, Germany (10544): temperature -20cm & temperature -100cm: 09.08.2020 22:00:00 - 15.08.2020 22:00:00 (CEST)Wasserkuppe, Germany (10544): wind speed & gusts: 09.08.2020 22:00:00 - 15.08.2020 22:00:00 (CEST)Wasserkuppe, Germany (10544): wind direction: 09.08.2020 22:00:00 - 15.08.2020 22:00:00 (CEST)Wasserkuppe, Germany (10544): visibility: 09.08.2020 22:00:00 - 15.08.2020 22:00:00 (CEST)Wasserkuppe, Germany (10544): sunshine duration: 09.08.2020 22:00:00 - 15.08.2020 22:00:00 (CEST)Wasserkuppe, Germany (10544): precipitation: 09.08.2020 22:00:00 - 15.08.2020 22:00:00 (CEST)
Date & Time tt [°C] td [°C] tt 5cm [°C] tt -5cm [°C] tt -20cm [°C] tt -100cm [°C] ff [km/h] ff [kn] fx [km/h] fx [kn] dd vv [km] sd [min] rr [mm]
15.08.2020 22:00:00 16,9 15,0 14,8 20,7 19,1 14,0 15 8 19 10 ESE 30 0 0,0
15.08.2020 21:00:00 17,6 15,1 16,1 21,6 19,0 14,0 10 5 13 7 E 28 1 0,0
15.08.2020 20:00:00 18,5 16,0 18,4 22,4 18,9 13,9 10 5 16 9 E 35 30 0,0
15.08.2020 19:00:00 19,7 16,4 20,3 22,8 18,7 13,9 9 5 14 8 NE 29 5 0,0
15.08.2020 18:00:00 20,6 16,2 22,6 22,9 18,6 13,9 6 3 23 13 E 33 26 0,0
15.08.2020 17:00:00 21,1 16,3 22,7 22,3 18,5 13,9 9 5 15 8 NE 30 52 0,0
15.08.2020 16:00:00 19,7 17,4 20,8 21,6 18,3 13,9 6 4 11 6 WNW 17 0 1,0
15.08.2020 15:00:00 18,7 16,5 18,1 21,8 18,2 13,9 8 4 13 7 W 3,7 0 1,7
15.08.2020 14:00:00 19,3 16,5 19,6 22,0 18,1 13,9 5 3 11 6 SSE 27 9 0,0
15.08.2020 13:00:00 19,9 14,8 21,5 21,9 18,0 13,9 12 6 18 10 NNE 33 57 0,0
15.08.2020 12:00:00 19,6 15,5 22,5 20,7 18,0 13,9 9 5 18 10 N 24 50 0,0
15.08.2020 11:00:00 20,1 15,7 23,9 19,3 18,0 13,9 8 5 13 7 N 24 60 0,0
15.08.2020 10:00:00 19,5 15,5 25,0 17,5 18,1 13,9 5 3 12 6 NNW 27 60 0,0
15.08.2020 09:00:00 17,8 15,5 20,6 16,7 18,2 13,9 8 4 16 8 N 15 22 0,0
15.08.2020 08:00:00 16,3 14,4 16,4 16,4 18,2 13,9 11 6 15 8 NNE 31 15 0,0
15.08.2020 07:00:00 16,0 14,6 15,5 16,3 18,3 13,9 14 8 16 8 N 23 0 0,0
15.08.2020 06:00:00 15,8 14,7 14,3 16,6 18,4 13,9 13 7 15 8 N 14 0 0,0
15.08.2020 05:00:00 15,9 14,4 14,7 16,8 18,5 13,9 13 7 19 10 N 26 0 0,0
15.08.2020 04:00:00 16,1 13,6 14,5 17,0 18,5 13,9 19 11 25 13 N 41 0 0,0
15.08.2020 03:00:00 15,6 14,0 14,5 17,3 18,6 13,9 21 11 25 14 N 44 0 0,5
15.08.2020 02:00:00 16,1 15,5 15,7 17,4 18,6 13,9 22 12 31 17 NNW 6 0 0,0
15.08.2020 01:00:00 16,4 15,1 15,8 17,7 18,7 13,9 21 12 28 15 N 21 0 0,0
15.08.2020 00:00:00 16,4 15,2 15,8 17,9 18,7 13,9 17 9 28 15 NNW 23 0 0,0
14.08.2020 23:00:00 16,5 15,1 15,9 18,3 18,7 13,9 14 7 24 13 WNW 25 0 0,0
14.08.2020 22:00:00 16,5 15,5 15,8 18,8 18,7 13,9 10 6 22 12 W 20 0 0,0
14.08.2020 21:00:00 16,3 15,3 15,7 19,4 18,6 13,9 13 7 20 11 W 17 0 0,0
14.08.2020 20:00:00 17,0 15,1 16,6 20,0 18,6 13,8 10 5 19 10 WNW 26 12 0,0
14.08.2020 19:00:00 18,3 15,1 19,2 20,1 18,5 13,8 13 7 21 12 W 26 59 0,0
14.08.2020 18:00:00 18,1 16,4 19,2 19,7 18,5 13,8 13 7 20 11 WSW 16 59 0,0
14.08.2020 17:00:00 17,3 16,4 18,4 19,1 18,5 13,8 18 10 26 14 WSW 12 7 0,5
14.08.2020 16:00:00 16,8 16,0 18,5 18,6 18,6 13,8 21 11 29 16 SW 13 0 0,0
14.08.2020 15:00:00 16,1 15,6 17,2 18,1 18,6 13,8 22 12 30 16 SW 25 0 0,1
14.08.2020 14:00:00 15,5 15,0 16,2 17,6 18,7 13,8 17 9 24 13 SW 9 0 1,0
14.08.2020 13:00:00 15,1 14,7 15,5 17,5 18,7 13,8 14 8 23 12 SSW 16 0 3,0
14.08.2020 12:00:00 15,1 14,2 15,0 17,7 18,8 13,8 4 2 29 16 NE 18 0 2,7
14.08.2020 11:00:00 15,0 14,8 15,2 17,7 18,9 13,8 23 12 32 18 NNE 0,2 0 1,0
14.08.2020 10:00:00 16,1 14,6 16,2 17,3 19,0 13,8 7 4 18 10 WSW 22 0 0,7
14.08.2020 09:00:00 15,4 14,2 15,3 17,1 19,1 13,8 16 8 20 11 SW 17 0 0,3
14.08.2020 08:00:00 14,6 13,6 14,3 17,2 19,1 13,8 16 9 29 16 WSW 24 0 1,0
14.08.2020 07:00:00 15,5 14,3 14,8 17,3 19,2 13,8 17 9 24 13 SW 13 0 0,1
14.08.2020 06:00:00 16,8 13,2 15,3 17,4 19,3 13,8 6 4 17 9 N 34 0 0,0
14.08.2020 05:00:00 16,9 13,3 16,0 17,5 19,4 13,8 13 7 19 10 WSW 40 0 0,0
14.08.2020 04:00:00 16,8 13,1 15,4 17,7 19,5 13,8 13 7 22 12 SW 36 0 0,0
14.08.2020 03:00:00 17,3 13,1 16,1 17,8 19,6 13,8 18 10 24 13 SW 37 0 0,0
14.08.2020 02:00:00 17,1 13,9 16,0 18,0 19,7 13,7 14 8 26 14 SW 37 0 0,0
14.08.2020 01:00:00 16,7 13,8 15,4 18,2 19,8 13,7 13 7 19 11 SSW 27 0 0,0
14.08.2020 00:00:00 17,0 12,8 15,8 18,5 19,9 13,7 15 8 19 10 SW 42 0 0,0
13.08.2020 23:00:00 16,4 13,4 15,4 18,7 20,0 13,7 12 7 18 10 SW 36 0 0,0
13.08.2020 22:00:00 16,3 13,5 14,7 19,2 20,0 13,7 16 8 24 13 SW 33 0 0,0
13.08.2020 21:00:00 17,2 13,9 16,2 19,6 20,1 13,7 17 9 24 13 WSW 34 0 0,0
13.08.2020 20:00:00 17,4 14,6 16,5 19,9 20,2 13,7 19 11 29 16 WSW 31 0 0,0
13.08.2020 19:00:00 17,4 15,2 16,8 19,9 20,2 13,7 21 11 32 17 SW 26 0 0,0
13.08.2020 18:00:00 16,7 15,4 16,9 19,8 20,3 13,7 23 12 34 19 SW 16 0 0,7
13.08.2020 17:00:00 16,7 15,2 16,7 19,8 20,4 13,7 21 12 27 15 SSW 17 0 0,9
13.08.2020 16:00:00 16,0 15,1 16,1 19,8 20,5 13,7 20 11 24 13 SW 13 0 1,5
13.08.2020 15:00:00 15,8 14,9 15,9 20,1 20,5 13,7 19 10 23 13 SW 8 0 2,6
13.08.2020 14:00:00 16,1 15,2 16,3 20,4 20,6 13,7 16 9 19 11 SSW 14 0 3,6
13.08.2020 13:00:00 16,4 15,3 16,0 20,9 20,6 13,7 11 6 22 12 S 2,3 0 2,6
13.08.2020 12:00:00 16,6 16,2 16,9 21,3 20,7 13,7 16 9 22 12 SSE 0,2 0 2,2
13.08.2020 11:00:00 18,0 16,0 17,2 21,6 20,7 13,7 13 7 31 17 WSW 17 0 0,3
13.08.2020 10:00:00 20,1 14,8 21,7 21,1 20,8 13,6 22 12 38 20 W 32 40 0,0
13.08.2020 09:00:00 21,4 13,4 22,3 20,4 20,9 13,6 29 15 35 19 SSE 48 3 0,0
13.08.2020 08:00:00 21,1 12,1 21,4 20,2 21,1 13,6 26 14 36 19 S 52 1 0,0
13.08.2020 07:00:00 20,3 13,0 18,9 20,4 21,2 13,6 27 15 35 19 SSE 46 0 0,0
13.08.2020 06:00:00 20,5 12,7 19,0 20,8 21,3 13,6 28 15 36 19 S 38 0 0,0
13.08.2020 05:00:00 20,8 11,6 19,4 21,0 21,4 13,6 27 15 37 20 S 43 0 0,0
13.08.2020 04:00:00 20,6 12,0 19,3 21,4 21,5 13,6 24 13 29 16 S 41 0 0,0
13.08.2020 03:00:00 20,5 12,1 18,6 21,7 21,6 13,6 18 10 22 12 S 49 0 0,0
13.08.2020 02:00:00 20,4 12,5 18,4 22,1 21,7 13,6 16 9 21 11 S 48 0 0,0
13.08.2020 01:00:00 20,2 13,0 17,7 22,6 21,7 13,6 18 10 28 15 S 42 0 0,0
13.08.2020 00:00:00 21,3 12,8 19,3 23,2 21,7 13,6 20 11 43 23 SSE 47 0 0,0
12.08.2020 23:00:00 21,3 12,9 19,7 24,0 21,7 13,6 31 17 40 21 SSE 38 0 0,0
12.08.2020 22:00:00 20,6 13,5 18,3 25,0 21,6 13,6 25 14 30 16 SE 41 0 0,0
12.08.2020 21:00:00 21,0 13,8 18,5 26,1 21,4 13,6 19 10 29 16 ESE 44 0 0,0
12.08.2020 20:00:00 23,6 12,7 21,7 27,2 21,2 13,6 16 9 22 12 SE 46 41 0,0
12.08.2020 19:00:00 27,0 13,5 28,4 27,6 21,1 13,5 16 9 28 15 SSE 48 59 0,0
12.08.2020 18:00:00 27,0 13,3 30,9 27,4 20,9 13,5 18 10 29 16 SSE 35 59 0,0
12.08.2020 17:00:00 26,9 14,0 31,8 26,8 20,7 13,5 20 11 33 18 SE 56 50 0,0
12.08.2020 16:00:00 26,7 14,9 30,2 26,4 20,5 13,5 19 10 25 13 SE 71 17 0,0
12.08.2020 15:00:00 24,7 13,9 26,1 26,6 20,3 13,5 9 5 20 11 SSE 36 7 0,0
12.08.2020 14:00:00 24,9 14,7 27,1 26,6 20,2 13,5 14 8 25 13 SSE 46 21 0,0
12.08.2020 13:00:00 26,4 15,6 32,3 25,2 20,1 13,5 14 7 32 17 SSE 31 56 0,0
12.08.2020 12:00:00 25,3 15,3 31,9 23,2 20,2 13,5 23 12 37 20 SSE 52 60 0,0
12.08.2020 11:00:00 24,5 15,4 29,7 21,4 20,3 13,5 27 15 38 20 SE 33 60 0,0
12.08.2020 10:00:00 22,5 14,5 27,3 19,8 20,4 13,5 23 12 31 17 SSE 30 60 0,0
12.08.2020 09:00:00 20,9 14,2 24,2 18,8 20,6 13,5 21 11 28 15 SE 41 60 0,0
12.08.2020 08:00:00 18,8 13,6 20,4 18,5 20,7 13,5 21 11 29 16 ESE 36 53 0,0
12.08.2020 07:00:00 17,8 13,2 16,1 18,7 20,9 13,5 19 10 26 14 SE 47 21 0,0
12.08.2020 06:00:00 17,0 13,0 13,5 19,1 21,1 13,5 18 10 30 16 SSE 40 0 0,0
12.08.2020 05:00:00 17,1 12,7 14,9 19,6 21,2 13,5 28 15 33 18 SE 46 0 0,0
12.08.2020 04:00:00 17,0 13,2 15,0 20,0 21,4 13,5 27 14 34 18 SE 44 0 0,0
12.08.2020 03:00:00 17,1 14,2 14,9 20,5 21,5 13,5 22 12 33 18 SE 32 0 0,0
12.08.2020 02:00:00 17,6 13,9 15,7 21,1 21,6 13,4 27 14 33 18 SE 38 0 0,0
12.08.2020 01:00:00 18,2 13,8 16,1 21,7 21,7 13,4 26 14 33 18 SE 39 0 0,0
12.08.2020 00:00:00 18,4 13,9 16,3 22,3 21,8 13,4 25 14 35 19 SE 38 0 0,0
11.08.2020 23:00:00 19,3 14,7 17,8 23,0 21,8 13,4 29 16 35 19 ESE 33 0 0,0
11.08.2020 22:00:00 19,8 14,7 18,4 23,8 21,8 13,4 29 15 38 21 SE 35 0 0,0
11.08.2020 21:00:00 19,7 15,3 18,5 24,6 21,8 13,4 26 14 36 19 SSE 29 0 0,0
11.08.2020 20:00:00 22,2 14,8 21,0 25,3 21,7 13,4 20 11 29 16 ESE 39 9 0,0
11.08.2020 19:00:00 23,1 13,5 22,3 26,2 21,5 13,4 11 6 22 12 E 41 0 0,0
11.08.2020 18:00:00 22,9 14,1 21,7 27,5 21,2 13,4 13 7 23 12 ENE 34 0 0,1
11.08.2020 17:00:00 21,7 14,5 18,7 29,0 21,0 13,4 12 7 30 16 W 27 0 0,5
11.08.2020 16:00:00 26,1 14,0 27,2 29,4 20,7 13,4 18 10 29 16 E 46 48 0,0
11.08.2020 15:00:00 27,6 14,1 32,2 28,6 20,5 13,4 13 7 28 15 SE 31 52 0,0
11.08.2020 14:00:00 28,4 15,5 35,1 27,1 20,4 13,4 20 11 40 21 SE 34 60 0,0
11.08.2020 13:00:00 26,4 14,8 32,1 25,5 20,4 13,4 22 12 35 19 ESE 31 60 0,0
11.08.2020 12:00:00 26,3 16,2 32,0 23,6 20,4 13,3 22 12 33 18 SE 24 60 0,0
11.08.2020 11:00:00 24,8 15,1 30,2 21,9 20,5 13,3 20 11 27 15 ESE 46 60 0,0
11.08.2020 10:00:00 22,7 14,6 26,7 20,5 20,6 13,3 18 10 27 15 ESE 39 60 0,0
11.08.2020 09:00:00 21,3 14,6 24,2 19,7 20,8 13,3 18 10 25 14 ESE 41 60 0,0
11.08.2020 08:00:00 19,2 14,0 20,1 19,5 20,9 13,3 19 11 31 17 ESE 37 17 0,0
11.08.2020 07:00:00 18,0 13,4 16,4 19,8 21,1 13,3 26 14 35 19 ESE 34 0 0,0
11.08.2020 06:00:00 17,8 13,1 15,5 20,3 21,2 13,3 23 12 32 18 ESE 35 0 0,0
11.08.2020 05:00:00 17,8 13,5 15,5 20,8 21,3 13,3 23 12 34 18 ESE 34 0 0,0
11.08.2020 04:00:00 19,4 13,5 16,7 21,2 21,4 13,3 17 9 25 13 SSE 40 0 0,0
11.08.2020 03:00:00 19,1 13,2 17,2 21,7 21,5 13,3 20 11 33 18 SE 40 0 0,0
11.08.2020 02:00:00 19,6 13,2 18,1 22,2 21,6 13,3 24 13 39 21 SE 39 0 0,0
11.08.2020 01:00:00 19,2 14,8 18,0 22,8 21,6 13,3 29 16 43 23 SE 31 0 0,0
11.08.2020 00:00:00 19,2 14,7 18,0 23,5 21,6 13,3 32 17 44 24 ESE 27 0 0,0
10.08.2020 23:00:00 20,0 14,2 18,4 24,3 21,6 13,3 30 16 38 21 ESE 30 0 0,0
10.08.2020 22:00:00 20,7 14,9 19,8 25,2 21,5 13,3 24 13 35 19 ESE 31 0 0,0
10.08.2020 21:00:00 21,6 13,8 20,1 26,3 21,3 13,3 21 11 32 17 E 41 0 0,0
10.08.2020 20:00:00 23,1 13,8 22,0 27,3 21,1 13,3 17 9 26 14 ESE 37 50 0,0
10.08.2020 19:00:00 25,0 14,1 25,7 28,0 20,9 13,3 15 8 23 12 E 35 48 0,0
10.08.2020 18:00:00 25,6 13,0 26,4 28,4 20,7 13,2 11 6 18 10 ESE 46 39 0,0
10.08.2020 17:00:00 26,4 12,6 29,9 28,3 20,4 13,2 11 6 19 10 E 72 47 0,0
10.08.2020 16:00:00 26,5 14,0 30,4 28,0 20,3 13,2 16 8 29 16 E 39 56 0,0
10.08.2020 15:00:00 26,9 14,1 32,5 26,7 20,1 13,2 16 9 31 17 ESE 32 59 0,0
10.08.2020 14:00:00 25,2 14,6 31,0 25,1 20,1 13,2 21 11 31 17 ESE 27 54 0,0
10.08.2020 13:00:00 25,0 14,1 28,3 23,6 20,1 13,2 24 13 33 18 ESE 38 54 0,0
10.08.2020 12:00:00 23,4 13,8 27,8 22,0 20,2 13,2 20 11 32 17 ESE 41 57 0,0
10.08.2020 11:00:00 22,3 13,4 24,9 20,7 20,3 13,2 20 11 35 19 E 41 38 0,0
10.08.2020 10:00:00 20,1 13,4 21,1 20,2 20,4 13,2 21 12 33 18 E 45 21 0,0
10.08.2020 09:00:00 19,9 13,7 21,1 19,8 20,5 13,2 17 9 26 14 ENE 32 30 0,0
10.08.2020 08:00:00 18,8 13,2 18,4 19,7 20,6 13,2 12 7 15 8 NE 32 0 0,0
10.08.2020 07:00:00 20,2 12,4 18,6 19,8 20,7 13,2 16 8 35 19 S 37 0 0,0
10.08.2020 06:00:00 19,7 12,5 18,6 20,1 20,9 13,2 26 14 37 20 SE 36 0 0,0
10.08.2020 05:00:00 19,5 12,0 17,2 20,5 21,0 13,2 29 16 41 22 ESE 41 0 0,0
10.08.2020 04:00:00 20,5 11,6 18,4 20,9 21,1 13,2 25 14 42 23 ESE 43 0 0,0
10.08.2020 03:00:00 20,6 11,5 18,4 21,4 21,2 13,2 29 16 43 23 ESE 43 0 0,0
10.08.2020 02:00:00 21,1 12,1 19,0 21,9 21,3 13,2 34 18 48 26 E 40 0 0,0
10.08.2020 01:00:00 21,7 12,0 20,5 22,3 21,3 13,2 28 15 39 21 E 45 0 0,0
10.08.2020 00:00:00 22,1 12,3 20,7 22,8 21,4 13,2 18 10 32 17 ENE 42 0 0,0
09.08.2020 23:00:00 22,7 12,3 20,5 23,5 21,3 13,1 15 8 26 14 ENE 43 0 0,0
09.08.2020 22:00:00 22,3 11,9 20,8 24,3 21,3 13,1 17 9 29 15 ENE 45 0 0,0

tt = temperature
td = dewpoint
tt 5cm = temperature 5cm
tt -5cm = temperature -5cm
tt -20cm = temperature -20cm
tt -100cm = temperature -100cm
ff = wind speed
fx = gusts
dd = wind direction
vv = visibility
sd = sunshine duration
rr = precipitation

Next stations